Terminal Aerodrome Forecast
Issued by NWS

Home | Current Version | Previous Version | Graphics & Text | Print | Product List | Glossary On
Versions: 1 2 3 4 5 6 7 8 9 10 11 12 13 14 15 16 17 18 19
000
FTUS41 KCLE 210200 AAA
TAFFDY
TAF AMD
KFDY 210201Z 2102/2124 21010KT 5SM -RA BR BKN060 OVC090
     FM210300 22018KT P6SM VCSH BKN040
     FM210700 24012KT 6SM BR VCSH SCT018 BKN035
      TEMPO 2107/2111 4SM -SHRA BR OVC018
     FM211500 28014KT P6SM BKN035
     FM211900 32016G24KT P6SM VCSH BKN035=

USA.gov is the U.S. government's official web portal to all federal, state and local government web resources and services.